Sea Girt, New Jersey
Current Conditions -  °F | °C
As of 2:55 AM on Saturday 20 Dec 2014 (Local Time) from KBLM Reporting Station
Overcast Overcast  
Wind Chill: 24°   Ceiling: 2600
Heat Index: 30°   Visibility: 10mi
Dew Point: 19°   Wind: 6mph
Humidity: 64%   Direction: 290°WNW
Pressure: 30.2"   Gusts: NA
Location:  40.13°N, 74.03°W
Report Text: KBLM 200755Z AUTO 29005KT 10SM OVC026 M01/M07 A3020 RMK AO1
Loading
Personal Weather Stations






























Interactive Weather Map New forecast layout! Learn more

10-Day Weather Forecast

Advertisements
Track Severe Weather on mobile